sensor_id;sensor_type;location;lat;lon;timestamp;pressure;altitude;pressure_sealevel;temperature;humidity
47374;BME280;33123;50.118;10.272;2023-04-10T00:01:45;98412.97;;;9.02;53.88
47374;BME280;33123;50.118;10.272;2023-04-10T00:04:13;98402.13;;;8.91;53.73
47374;BME280;33123;50.118;10.272;2023-04-10T00:06:40;98401.41;;;8.84;54.02
47374;BME280;33123;50.118;10.272;2023-04-10T00:09:07;98393.78;;;8.76;54.52
47374;BME280;33123;50.118;10.272;2023-04-10T00:11:34;98399.16;;;8.63;54.63
47374;BME280;33123;50.118;10.272;2023-04-10T00:14:00;98405.66;;;8.60;54.70
47374;BME280;33123;50.118;10.272;2023-04-10T00:16:27;98397.25;;;8.52;54.78
47374;BME280;33123;50.118;10.272;2023-04-10T00:18:53;98402.56;;;8.45;55.43
47374;BME280;33123;50.118;10.272;2023-04-10T00:21:21;98401.00;;;8.37;55.03
47374;BME280;33123;50.118;10.272;2023-04-10T00:23:48;98406.03;;;8.32;55.09
47374;BME280;33123;50.118;10.272;2023-04-10T00:26:15;98405.53;;;8.24;55.20
47374;BME280;33123;50.118;10.272;2023-04-10T00:28:42;98403.13;;;8.15;56.13
47374;BME280;33123;50.118;10.272;2023-04-10T00:31:08;98410.47;;;8.07;55.74
47374;BME280;33123;50.118;10.272;2023-04-10T00:33:35;98401.25;;;7.98;55.79
47374;BME280;33123;50.118;10.272;2023-04-10T00:36:02;98399.91;;;7.88;55.98
47374;BME280;33123;50.118;10.272;2023-04-10T00:38:30;98400.34;;;7.79;56.04
47374;BME280;33123;50.118;10.272;2023-04-10T00:40:56;98396.56;;;7.68;57.20
47374;BME280;33123;50.118;10.272;2023-04-10T00:43:23;98394.16;;;7.60;57.05
47374;BME280;33123;50.118;10.272;2023-04-10T00:45:49;98390.19;;;7.51;57.44
47374;BME280;33123;50.118;10.272;2023-04-10T00:48:16;98390.25;;;7.44;57.68
47374;BME280;33123;50.118;10.272;2023-04-10T00:50:44;98322.06;;;6.93;57.69
47374;BME280;33123;50.118;10.272;2023-04-10T00:53:11;98386.44;;;7.27;58.19
47374;BME280;33123;50.118;10.272;2023-04-10T00:55:39;98389.09;;;7.20;58.30
47374;BME280;33123;50.118;10.272;2023-04-10T00:58:06;98384.69;;;7.14;58.70
47374;BME280;33123;50.118;10.272;2023-04-10T01:00:33;98388.72;;;7.10;59.26
47374;BME280;33123;50.118;10.272;2023-04-10T01:02:59;98380.28;;;7.08;59.78
47374;BME280;33123;50.118;10.272;2023-04-10T01:05:31;98384.72;;;7.07;59.86
47374;BME280;33123;50.118;10.272;2023-04-10T01:11:26;98372.22;;;7.03;59.49
47374;BME280;33123;50.118;10.272;2023-04-10T01:14:03;98379.47;;;7.07;60.34
47374;BME280;33123;50.118;10.272;2023-04-10T01:16:35;98383.69;;;7.08;61.15
47374;BME280;33123;50.118;10.272;2023-04-10T01:21:55;98379.81;;;7.24;61.11
47374;BME280;33123;50.118;10.272;2023-04-10T01:24:39;98380.56;;;7.45;60.45
47374;BME280;33123;50.118;10.272;2023-04-10T01:27:18;98384.88;;;7.64;60.54
47374;BME280;33123;50.118;10.272;2023-04-10T01:29:51;98387.00;;;7.80;60.19
47374;BME280;33123;50.118;10.272;2023-04-10T01:32:22;98387.53;;;7.96;59.43
47374;BME280;33123;50.118;10.272;2023-04-10T01:34:51;98387.66;;;8.07;59.32
47374;BME280;33123;50.118;10.272;2023-04-10T01:37:22;98385.16;;;8.19;58.52
47374;BME280;33123;50.118;10.272;2023-04-10T01:39:53;98401.81;;;8.31;58.08
47374;BME280;33123;50.118;10.272;2023-04-10T01:42:21;98398.97;;;8.33;56.91
47374;BME280;33123;50.118;10.272;2023-04-10T01:44:50;98392.34;;;8.30;57.11
47374;BME280;33123;50.118;10.272;2023-04-10T01:47:18;98396.03;;;8.23;57.03
47374;BME280;33123;50.118;10.272;2023-04-10T01:49:46;98397.53;;;8.12;57.08
47374;BME280;33123;50.118;10.272;2023-04-10T01:52:13;98327.03;;;7.52;57.07
47374;BME280;33123;50.118;10.272;2023-04-10T01:54:40;98404.13;;;7.89;57.34
47374;BME280;33123;50.118;10.272;2023-04-10T01:57:10;98408.63;;;7.76;57.45
47374;BME280;33123;50.118;10.272;2023-04-10T01:59:39;98393.41;;;7.53;58.05
47374;BME280;33123;50.118;10.272;2023-04-10T02:02:07;98377.34;;;7.36;58.37
47374;BME280;33123;50.118;10.272;2023-04-10T02:04:35;98414.44;;;7.46;58.85
47374;BME280;33123;50.118;10.272;2023-04-10T02:07:03;98407.59;;;7.38;59.35
47374;BME280;33123;50.118;10.272;2023-04-10T02:09:39;98417.91;;;7.33;59.43
47374;BME280;33123;50.118;10.272;2023-04-10T02:12:09;98411.69;;;7.28;59.81
47374;BME280;33123;50.118;10.272;2023-04-10T02:14:41;98408.06;;;7.22;59.77
47374;BME280;33123;50.118;10.272;2023-04-10T02:17:12;98413.72;;;7.19;60.25
47374;BME280;33123;50.118;10.272;2023-04-10T02:19:40;98405.66;;;7.14;60.07
47374;BME280;33123;50.118;10.272;2023-04-10T02:22:07;98401.03;;;7.09;60.31
47374;BME280;33123;50.118;10.272;2023-04-10T02:24:34;98401.44;;;7.06;61.00
47374;BME280;33123;50.118;10.272;2023-04-10T02:27:01;98394.19;;;7.02;60.95
47374;BME280;33123;50.118;10.272;2023-04-10T02:29:27;98393.63;;;7.00;60.91
47374;BME280;33123;50.118;10.272;2023-04-10T02:31:54;98389.16;;;6.94;61.37
47374;BME280;33123;50.118;10.272;2023-04-10T02:34:22;98388.56;;;6.92;61.86
47374;BME280;33123;50.118;10.272;2023-04-10T02:36:49;98388.78;;;6.90;62.11
47374;BME280;33123;50.118;10.272;2023-04-10T02:39:16;98385.13;;;6.98;63.12
47374;BME280;33123;50.118;10.272;2023-04-10T02:41:43;98381.28;;;7.07;62.39
47374;BME280;33123;50.118;10.272;2023-04-10T02:44:09;98387.69;;;7.24;62.08
47374;BME280;33123;50.118;10.272;2023-04-10T02:46:36;98388.63;;;7.36;61.77
47374;BME280;33123;50.118;10.272;2023-04-10T02:49:02;98401.09;;;7.48;61.09
47374;BME280;33123;50.118;10.272;2023-04-10T02:51:33;98393.41;;;7.53;59.76
47374;BME280;33123;50.118;10.272;2023-04-10T02:54:00;98391.81;;;7.52;60.07
47374;BME280;33123;50.118;10.272;2023-04-10T02:56:27;98387.19;;;7.47;59.70
47374;BME280;33123;50.118;10.272;2023-04-10T02:58:53;98383.34;;;7.43;59.62
47374;BME280;33123;50.118;10.272;2023-04-10T03:01:20;98381.78;;;7.35;59.87
47374;BME280;33123;50.118;10.272;2023-04-10T03:03:47;98364.13;;;7.18;59.80
47374;BME280;33123;50.118;10.272;2023-04-10T03:06:14;98378.03;;;7.18;59.76
47374;BME280;33123;50.118;10.272;2023-04-10T03:08:42;98385.28;;;7.09;59.85
47374;BME280;33123;50.118;10.272;2023-04-10T03:11:08;98382.28;;;6.99;59.67
47374;BME280;33123;50.118;10.272;2023-04-10T03:13:35;98381.94;;;6.89;60.15
47374;BME280;33123;50.118;10.272;2023-04-10T03:16:01;98377.13;;;6.79;60.67
47374;BME280;33123;50.118;10.272;2023-04-10T03:18:28;98380.75;;;6.72;60.75
47374;BME280;33123;50.118;10.272;2023-04-10T03:20:56;98374.94;;;6.63;60.95
47374;BME280;33123;50.118;10.272;2023-04-10T03:23:22;98378.38;;;6.57;61.31
47374;BME280;33123;50.118;10.272;2023-04-10T03:25:51;98375.53;;;6.52;62.89
47374;BME280;33123;50.118;10.272;2023-04-10T03:28:19;98382.59;;;6.51;62.49
47374;BME280;33123;50.118;10.272;2023-04-10T03:30:45;98371.91;;;6.53;63.08
47374;BME280;33123;50.118;10.272;2023-04-10T03:33:12;98379.56;;;6.54;62.60
47374;BME280;33123;50.118;10.272;2023-04-10T03:35:39;98375.94;;;6.55;63.11
47374;BME280;33123;50.118;10.272;2023-04-10T03:38:05;98372.50;;;6.55;62.79
47374;BME280;33123;50.118;10.272;2023-04-10T03:40:32;98375.13;;;6.55;63.23
47374;BME280;33123;50.118;10.272;2023-04-10T03:43:00;98372.50;;;6.55;62.86
47374;BME280;33123;50.118;10.272;2023-04-10T03:45:26;98338.50;;;6.35;62.53
47374;BME280;33123;50.118;10.272;2023-04-10T03:47:54;98364.47;;;6.50;62.50
47374;BME280;33123;50.118;10.272;2023-04-10T03:50:21;98351.56;;;6.42;62.54
47374;BME280;33123;50.118;10.272;2023-04-10T03:52:48;98368.72;;;6.44;63.60
47374;BME280;33123;50.118;10.272;2023-04-10T03:55:15;98369.50;;;6.45;62.73
47374;BME280;33123;50.118;10.272;2023-04-10T03:57:43;98374.75;;;6.45;63.08
47374;BME280;33123;50.118;10.272;2023-04-10T04:00:12;98343.13;;;6.26;63.51
47374;BME280;33123;50.118;10.272;2023-04-10T04:02:39;98370.50;;;6.44;64.29
47374;BME280;33123;50.118;10.272;2023-04-10T04:05:06;98367.69;;;6.45;64.47
47374;BME280;33123;50.118;10.272;2023-04-10T04:07:33;98369.09;;;6.48;63.71
47374;BME280;33123;50.118;10.272;2023-04-10T04:10:00;98374.31;;;6.48;63.83
47374;BME280;33123;50.118;10.272;2023-04-10T04:12:26;98383.78;;;6.49;63.57
47374;BME280;33123;50.118;10.272;2023-04-10T04:14:53;98374.31;;;6.48;63.33
47374;BME280;33123;50.118;10.272;2023-04-10T04:17:21;98375.34;;;6.47;63.92
47374;BME280;33123;50.118;10.272;2023-04-10T04:19:47;98379.19;;;6.44;63.63
47374;BME280;33123;50.118;10.272;2023-04-10T04:22:14;98376.75;;;6.43;63.80
47374;BME280;33123;50.118;10.272;2023-04-10T04:24:41;98375.56;;;6.39;63.73
47374;BME280;33123;50.118;10.272;2023-04-10T04:27:07;98377.56;;;6.37;63.60
47374;BME280;33123;50.118;10.272;2023-04-10T04:29:34;98380.59;;;6.33;63.94
47374;BME280;33123;50.118;10.272;2023-04-10T04:32:01;98380.97;;;6.30;64.30
47374;BME280;33123;50.118;10.272;2023-04-10T04:34:29;98382.00;;;6.29;63.50
47374;BME280;33123;50.118;10.272;2023-04-10T04:36:55;98382.00;;;6.29;62.97
47374;BME280;33123;50.118;10.272;2023-04-10T04:39:22;98382.00;;;6.29;63.19
47374;BME280;33123;50.118;10.272;2023-04-10T04:41:48;98367.47;;;6.27;63.34
47374;BME280;33123;50.118;10.272;2023-04-10T04:44:16;98373.56;;;6.27;63.88
47374;BME280;33123;50.118;10.272;2023-04-10T04:46:43;98372.53;;;6.28;63.68
47374;BME280;33123;50.118;10.272;2023-04-10T04:49:10;98375.97;;;6.29;63.93
47374;BME280;33123;50.118;10.272;2023-04-10T04:51:38;98374.56;;;6.33;65.24
47374;BME280;33123;50.118;10.272;2023-04-10T04:54:04;98375.16;;;6.42;66.20
47374;BME280;33123;50.118;10.272;2023-04-10T04:56:31;98369.28;;;6.53;65.70
47374;BME280;33123;50.118;10.272;2023-04-10T04:58:58;98369.88;;;6.68;65.48
47374;BME280;33123;50.118;10.272;2023-04-10T05:01:24;98367.84;;;6.83;65.30
47374;BME280;33123;50.118;10.272;2023-04-10T05:03:51;98378.69;;;7.00;64.87
47374;BME280;33123;50.118;10.272;2023-04-10T05:06:17;98381.03;;;7.15;64.30
47374;BME280;33123;50.118;10.272;2023-04-10T05:08:46;98380.97;;;7.35;63.82
47374;BME280;33123;50.118;10.272;2023-04-10T05:11:12;98375.84;;;7.53;62.53
47374;BME280;33123;50.118;10.272;2023-04-10T05:13:39;98379.22;;;7.67;62.41
47374;BME280;33123;50.118;10.272;2023-04-10T05:16:06;98383.13;;;7.89;61.97
47374;BME280;33123;50.118;10.272;2023-04-10T05:18:33;98377.09;;;8.14;61.49
47374;BME280;33123;50.118;10.272;2023-04-10T05:21:00;98381.16;;;8.41;60.36
47374;BME280;33123;50.118;10.272;2023-04-10T05:23:27;98380.66;;;8.76;59.50
47374;BME280;33123;50.118;10.272;2023-04-10T05:25:55;98384.59;;;9.04;58.54
47374;BME280;33123;50.118;10.272;2023-04-10T05:28:21;98382.88;;;9.34;57.24
47374;BME280;33123;50.118;10.272;2023-04-10T05:30:48;98382.75;;;9.59;56.27
47374;BME280;33123;50.118;10.272;2023-04-10T05:33:14;98380.25;;;9.94;55.80
47374;BME280;33123;50.118;10.272;2023-04-10T05:35:41;98384.41;;;10.14;54.60
47374;BME280;33123;50.118;10.272;2023-04-10T05:38:08;98381.84;;;10.49;53.58
47374;BME280;33123;50.118;10.272;2023-04-10T05:40:35;98376.81;;;10.71;52.77
47374;BME280;33123;50.118;10.272;2023-04-10T05:43:03;98374.88;;;10.78;52.38
47374;BME280;33123;50.118;10.272;2023-04-10T05:45:29;98377.41;;;10.84;52.15
47374;BME280;33123;50.118;10.272;2023-04-10T05:47:56;98372.56;;;10.93;52.12
47374;BME280;33123;50.118;10.272;2023-04-10T05:50:22;98381.63;;;10.97;51.66
47374;BME280;33123;50.118;10.272;2023-04-10T05:52:49;98384.69;;;11.18;51.18
47374;BME280;33123;50.118;10.272;2023-04-10T05:55:17;98380.16;;;11.42;50.75
47374;BME280;33123;50.118;10.272;2023-04-10T05:57:45;98385.53;;;11.75;50.55
47374;BME280;33123;50.118;10.272;2023-04-10T06:00:14;98389.41;;;12.13;49.31
47374;BME280;33123;50.118;10.272;2023-04-10T06:02:42;98389.75;;;12.33;48.24
47374;BME280;33123;50.118;10.272;2023-04-10T06:05:09;98390.03;;;12.71;47.91
47374;BME280;33123;50.118;10.272;2023-04-10T06:07:36;98388.84;;;13.17;48.55
47374;BME280;33123;50.118;10.272;2023-04-10T06:10:03;98390.56;;;13.72;46.71
47374;BME280;33123;50.118;10.272;2023-04-10T06:12:30;98392.34;;;14.20;44.93
47374;BME280;33123;50.118;10.272;2023-04-10T06:14:56;98396.94;;;14.57;43.30
47374;BME280;33123;50.118;10.272;2023-04-10T06:17:25;98391.81;;;14.83;42.50
47374;BME280;33123;50.118;10.272;2023-04-10T06:19:52;98391.16;;;15.13;42.23
47374;BME280;33123;50.118;10.272;2023-04-10T06:22:20;98385.09;;;15.22;42.12
47374;BME280;33123;50.118;10.272;2023-04-10T06:24:47;98386.81;;;15.59;41.45
47374;BME280;33123;50.118;10.272;2023-04-10T06:27:14;98385.31;;;15.73;40.95
47374;BME280;33123;50.118;10.272;2023-04-10T06:29:40;98382.94;;;15.72;40.65
47374;BME280;33123;50.118;10.272;2023-04-10T06:32:07;98384.03;;;15.96;40.49
47374;BME280;33123;50.118;10.272;2023-04-10T06:34:35;98380.34;;;16.18;40.17
47374;BME280;33123;50.118;10.272;2023-04-10T06:37:01;98392.81;;;16.43;39.80
47374;BME280;33123;50.118;10.272;2023-04-10T06:39:28;98388.28;;;16.63;39.22
47374;BME280;33123;50.118;10.272;2023-04-10T06:41:54;98389.66;;;16.71;38.68
47374;BME280;33123;50.118;10.272;2023-04-10T06:44:22;98384.75;;;17.19;38.31
47374;BME280;33123;50.118;10.272;2023-04-10T06:46:48;98372.97;;;17.35;37.58
47374;BME280;33123;50.118;10.272;2023-04-10T06:49:15;98378.41;;;17.64;38.00
47374;BME280;33123;50.118;10.272;2023-04-10T06:55:17;98380.59;;;17.57;36.86
47374;BME280;33123;50.118;10.272;2023-04-10T06:57:43;98380.44;;;17.33;37.49
47374;BME280;33123;50.118;10.272;2023-04-10T07:00:10;98376.75;;;17.19;37.62
47374;BME280;33123;50.118;10.272;2023-04-10T07:02:37;98382.69;;;17.01;38.17
47374;BME280;33123;50.118;10.272;2023-04-10T07:05:04;98381.03;;;17.10;38.33
47374;BME280;33123;50.118;10.272;2023-04-10T07:07:31;98389.06;;;17.05;38.16
47374;BME280;33123;50.118;10.272;2023-04-10T07:09:58;98389.06;;;17.00;38.05
47374;BME280;33123;50.118;10.272;2023-04-10T07:12:26;98385.94;;;16.72;38.47
47374;BME280;33123;50.118;10.272;2023-04-10T07:14:52;98381.09;;;17.00;38.99
47374;BME280;33123;50.118;10.272;2023-04-10T07:17:19;98384.44;;;17.26;38.52
47374;BME280;33123;50.118;10.272;2023-04-10T07:19:46;98382.44;;;17.62;38.22
47374;BME280;33123;50.118;10.272;2023-04-10T07:22:43;98386.00;;;17.97;36.82
47374;BME280;33123;50.118;10.272;2023-04-10T07:25:10;98374.19;;;18.08;37.19
47374;BME280;33123;50.118;10.272;2023-04-10T07:27:39;98380.72;;;18.26;36.83
47374;BME280;33123;50.118;10.272;2023-04-10T07:30:07;98376.50;;;18.19;36.45
47374;BME280;33123;50.118;10.272;2023-04-10T07:32:34;98385.81;;;18.22;36.05
47374;BME280;33123;50.118;10.272;2023-04-10T07:35:04;98379.19;;;18.48;36.60
47374;BME280;33123;50.118;10.272;2023-04-10T07:37:31;98377.34;;;18.78;35.69
47374;BME280;33123;50.118;10.272;2023-04-10T07:39:58;98381.50;;;18.60;35.50
47374;BME280;33123;50.118;10.272;2023-04-10T07:46:06;98360.88;;;18.37;35.20
47374;BME280;33123;50.118;10.272;2023-04-10T07:48:33;98378.03;;;18.26;35.50
47374;BME280;33123;50.118;10.272;2023-04-10T07:51:01;98371.91;;;17.86;35.45
47374;BME280;33123;50.118;10.272;2023-04-10T07:53:27;98368.69;;;17.94;35.75
47374;BME280;33123;50.118;10.272;2023-04-10T07:55:54;98359.16;;;17.83;35.77
47374;BME280;33123;50.118;10.272;2023-04-10T07:58:21;98371.22;;;17.65;37.23
47374;BME280;33123;50.118;10.272;2023-04-10T08:00:48;98360.00;;;17.68;36.36
47374;BME280;33123;50.118;10.272;2023-04-10T08:03:16;98352.25;;;17.17;36.92
47374;BME280;33123;50.118;10.272;2023-04-10T08:05:42;98363.81;;;17.57;36.81
47374;BME280;33123;50.118;10.272;2023-04-10T08:08:09;98354.25;;;17.51;37.02
47374;BME280;33123;50.118;10.272;2023-04-10T08:10:36;98351.34;;;17.91;37.04
47374;BME280;33123;50.118;10.272;2023-04-10T08:13:03;98345.66;;;17.59;35.98
47374;BME280;33123;50.118;10.272;2023-04-10T08:15:30;98356.28;;;17.64;35.95
47374;BME280;33123;50.118;10.272;2023-04-10T08:17:57;98364.84;;;17.61;35.90
47374;BME280;33123;50.118;10.272;2023-04-10T08:20:25;98360.19;;;17.32;36.42
47374;BME280;33123;50.118;10.272;2023-04-10T08:22:52;98363.66;;;17.33;36.73
47374;BME280;33123;50.118;10.272;2023-04-10T08:25:19;98367.16;;;17.23;36.97
47374;BME280;33123;50.118;10.272;2023-04-10T08:27:45;98343.91;;;17.39;37.03
47374;BME280;33123;50.118;10.272;2023-04-10T08:30:12;98348.94;;;17.46;37.24
47374;BME280;33123;50.118;10.272;2023-04-10T08:32:39;98346.50;;;17.99;36.41
47374;BME280;33123;50.118;10.272;2023-04-10T08:35:06;98340.19;;;17.89;36.13
47374;BME280;33123;50.118;10.272;2023-04-10T08:37:34;98345.69;;;17.98;35.99
47374;BME280;33123;50.118;10.272;2023-04-10T08:40:01;98359.97;;;18.17;36.10
47374;BME280;33123;50.118;10.272;2023-04-10T08:42:28;98348.41;;;17.93;35.86
47374;BME280;33123;50.118;10.272;2023-04-10T08:44:55;98346.31;;;18.24;36.05
47374;BME280;33123;50.118;10.272;2023-04-10T08:47:26;98339.34;;;18.57;35.22
47374;BME280;33123;50.118;10.272;2023-04-10T08:49:56;98351.97;;;18.46;35.49
47374;BME280;33123;50.118;10.272;2023-04-10T08:52:24;98340.84;;;18.39;36.07
47374;BME280;33123;50.118;10.272;2023-04-10T08:54:54;98344.44;;;18.25;35.62
47374;BME280;33123;50.118;10.272;2023-04-10T08:57:23;98335.97;;;18.76;35.32
47374;BME280;33123;50.118;10.272;2023-04-10T08:59:51;98334.84;;;18.53;34.98
47374;BME280;33123;50.118;10.272;2023-04-10T09:02:18;98340.72;;;18.55;35.42
47374;BME280;33123;50.118;10.272;2023-04-10T09:04:47;98336.22;;;18.79;35.31
47374;BME280;33123;50.118;10.272;2023-04-10T09:07:14;98323.53;;;18.32;36.13
47374;BME280;33123;50.118;10.272;2023-04-10T09:09:41;98322.06;;;18.50;35.70
47374;BME280;33123;50.118;10.272;2023-04-10T09:12:10;98322.44;;;19.15;34.83
47374;BME280;33123;50.118;10.272;2023-04-10T09:14:39;98321.91;;;18.94;34.22
47374;BME280;33123;50.118;10.272;2023-04-10T09:17:17;98320.22;;;19.22;34.26
47374;BME280;33123;50.118;10.272;2023-04-10T09:19:46;98317.56;;;19.22;34.54
47374;BME280;33123;50.118;10.272;2023-04-10T09:22:13;98307.47;;;19.38;34.10
47374;BME280;33123;50.118;10.272;2023-04-10T09:24:41;98292.00;;;18.92;34.08
47374;BME280;33123;50.118;10.272;2023-04-10T09:27:10;98249.78;;;19.13;35.14
47374;BME280;33123;50.118;10.272;2023-04-10T09:29:42;98294.34;;;19.60;33.83
47374;BME280;33123;50.118;10.272;2023-04-10T09:32:09;98312.03;;;19.75;33.25
47374;BME280;33123;50.118;10.272;2023-04-10T09:34:51;98296.00;;;20.08;33.29
47374;BME280;33123;50.118;10.272;2023-04-10T09:37:19;98285.53;;;20.11;33.03
47374;BME280;33123;50.118;10.272;2023-04-10T09:39:47;98290.50;;;20.31;32.42
47374;BME280;33123;50.118;10.272;2023-04-10T09:42:15;98272.53;;;20.65;32.34
47374;BME280;33123;50.118;10.272;2023-04-10T09:44:42;98275.81;;;20.89;31.25
47374;BME280;33123;50.118;10.272;2023-04-10T09:47:17;98260.28;;;21.14;31.53
47374;BME280;33123;50.118;10.272;2023-04-10T09:49:45;98274.88;;;21.21;30.33
47374;BME280;33123;50.118;10.272;2023-04-10T09:52:20;98254.44;;;21.12;30.68
47374;BME280;33123;50.118;10.272;2023-04-10T09:54:47;98256.84;;;20.86;31.58
47374;BME280;33123;50.118;10.272;2023-04-10T09:57:16;98251.16;;;21.15;30.93
47374;BME280;33123;50.118;10.272;2023-04-10T09:59:47;98256.88;;;20.72;31.36
47374;BME280;33123;50.118;10.272;2023-04-10T10:02:16;98241.75;;;20.48;31.66
47374;BME280;33123;50.118;10.272;2023-04-10T10:04:44;98239.41;;;20.61;31.96
47374;BME280;33123;50.118;10.272;2023-04-10T10:07:13;98237.41;;;20.94;31.00
47374;BME280;33123;50.118;10.272;2023-04-10T10:09:41;98236.78;;;21.11;30.93
47374;BME280;33123;50.118;10.272;2023-04-10T10:12:08;98227.25;;;21.54;30.55
47374;BME280;33123;50.118;10.272;2023-04-10T10:14:53;98215.78;;;21.63;30.54
47374;BME280;33123;50.118;10.272;2023-04-10T10:17:24;98213.22;;;21.57;29.85
47374;BME280;33123;50.118;10.272;2023-04-10T10:20:00;98206.84;;;21.31;30.30
47374;BME280;33123;50.118;10.272;2023-04-10T10:22:28;98199.78;;;21.35;29.18
47374;BME280;33123;50.118;10.272;2023-04-10T10:24:55;98203.97;;;21.27;28.67
47374;BME280;33123;50.118;10.272;2023-04-10T10:27:22;98210.31;;;21.31;29.58
47374;BME280;33123;50.118;10.272;2023-04-10T10:29:53;98205.84;;;21.41;29.84
47374;BME280;33123;50.118;10.272;2023-04-10T10:32:20;98205.16;;;21.35;29.39
47374;BME280;33123;50.118;10.272;2023-04-10T10:34:51;98199.00;;;21.79;29.14
47374;BME280;33123;50.118;10.272;2023-04-10T10:37:18;98193.16;;;22.08;28.88
47374;BME280;33123;50.118;10.272;2023-04-10T10:39:50;98185.59;;;22.50;28.40
47374;BME280;33123;50.118;10.272;2023-04-10T10:42:25;98181.72;;;22.25;28.44
47374;BME280;33123;50.118;10.272;2023-04-10T10:45:05;98178.44;;;22.28;28.61
47374;BME280;33123;50.118;10.272;2023-04-10T10:47:33;98168.13;;;22.22;28.47
47374;BME280;33123;50.118;10.272;2023-04-10T10:50:05;98167.00;;;21.92;28.74
47374;BME280;33123;50.118;10.272;2023-04-10T10:52:45;98160.38;;;22.20;28.82
47374;BME280;33123;50.118;10.272;2023-04-10T10:55:32;98146.75;;;21.77;29.16
47374;BME280;33123;50.118;10.272;2023-04-10T10:58:06;98152.13;;;21.32;29.73
47374;BME280;33123;50.118;10.272;2023-04-10T11:01:05;98148.25;;;21.38;29.31
47374;BME280;33123;50.118;10.272;2023-04-10T11:03:35;98142.13;;;21.24;29.72
47374;BME280;33123;50.118;10.272;2023-04-10T11:06:05;98142.44;;;21.22;29.88
47374;BME280;33123;50.118;10.272;2023-04-10T11:08:40;98139.66;;;21.14;30.79
47374;BME280;33123;50.118;10.272;2023-04-10T11:11:10;98138.19;;;21.07;30.34
47374;BME280;33123;50.118;10.272;2023-04-10T11:13:41;98129.44;;;20.93;29.53
47374;BME280;33123;50.118;10.272;2023-04-10T11:16:09;98140.59;;;20.59;30.74
47374;BME280;33123;50.118;10.272;2023-04-10T11:19:01;98124.25;;;20.47;30.67
47374;BME280;33123;50.118;10.272;2023-04-10T11:21:29;98124.06;;;20.43;30.11
47374;BME280;33123;50.118;10.272;2023-04-10T11:24:04;98128.59;;;20.43;30.83
47374;BME280;33123;50.118;10.272;2023-04-10T11:26:38;98114.06;;;20.21;30.82
47374;BME280;33123;50.118;10.272;2023-04-10T11:29:31;98122.97;;;20.17;30.91
47374;BME280;33123;50.118;10.272;2023-04-10T11:32:01;98110.38;;;20.17;31.08
47374;BME280;33123;50.118;10.272;2023-04-10T11:34:28;98102.94;;;20.00;30.82
47374;BME280;33123;50.118;10.272;2023-04-10T11:36:57;98108.19;;;20.33;30.72
47374;BME280;33123;50.118;10.272;2023-04-10T11:39:25;98092.50;;;20.68;30.02
47374;BME280;33123;50.118;10.272;2023-04-10T11:41:53;98098.34;;;20.42;29.88
47374;BME280;33123;50.118;10.272;2023-04-10T11:44:27;98096.91;;;19.48;31.03
47374;BME280;33123;50.118;10.272;2023-04-10T11:46:53;98094.63;;;19.88;30.70
47374;BME280;33123;50.118;10.272;2023-04-10T11:49:23;98088.38;;;19.79;30.70
47374;BME280;33123;50.118;10.272;2023-04-10T11:51:51;98096.91;;;20.09;30.26
47374;BME280;33123;50.118;10.272;2023-04-10T11:54:18;98086.69;;;20.11;30.24
47374;BME280;33123;50.118;10.272;2023-04-10T11:56:55;98100.25;;;20.14;30.97
47374;BME280;33123;50.118;10.272;2023-04-10T11:59:23;98079.06;;;20.18;30.23
47374;BME280;33123;50.118;10.272;2023-04-10T12:01:50;98083.94;;;20.16;29.80
47374;BME280;33123;50.118;10.272;2023-04-10T12:04:20;98068.84;;;20.20;29.83
47374;BME280;33123;50.118;10.272;2023-04-10T12:06:49;98065.66;;;20.31;30.53
47374;BME280;33123;50.118;10.272;2023-04-10T12:09:17;98060.81;;;20.20;30.91
47374;BME280;33123;50.118;10.272;2023-04-10T12:11:48;98074.81;;;20.17;30.39
47374;BME280;33123;50.118;10.272;2023-04-10T12:14:16;98064.38;;;20.15;30.90
47374;BME280;33123;50.118;10.272;2023-04-10T12:16:42;98065.69;;;20.18;31.37
47374;BME280;33123;50.118;10.272;2023-04-10T12:19:09;98058.63;;;20.08;30.79
47374;BME280;33123;50.118;10.272;2023-04-10T12:21:37;98049.00;;;20.35;30.46
47374;BME280;33123;50.118;10.272;2023-04-10T12:24:05;98047.59;;;20.37;30.21
47374;BME280;33123;50.118;10.272;2023-04-10T12:26:32;98048.00;;;20.44;30.74
47374;BME280;33123;50.118;10.272;2023-04-10T12:28:58;98043.06;;;20.24;30.30
47374;BME280;33123;50.118;10.272;2023-04-10T12:31:26;98043.22;;;20.55;30.99
47374;BME280;33123;50.118;10.272;2023-04-10T12:33:53;98032.34;;;20.24;30.84
47374;BME280;33123;50.118;10.272;2023-04-10T12:36:22;98012.16;;;20.18;30.23
47374;BME280;33123;50.118;10.272;2023-04-10T12:38:51;98025.69;;;20.35;31.25
47374;BME280;33123;50.118;10.272;2023-04-10T12:41:23;97997.25;;;20.25;30.92
47374;BME280;33123;50.118;10.272;2023-04-10T12:43:51;98020.63;;;20.47;31.15
47374;BME280;33123;50.118;10.272;2023-04-10T12:46:23;98009.16;;;20.33;31.70
47374;BME280;33123;50.118;10.272;2023-04-10T12:48:50;97990.00;;;20.26;30.60
47374;BME280;33123;50.118;10.272;2023-04-10T12:51:16;97982.03;;;19.98;30.86
47374;BME280;33123;50.118;10.272;2023-04-10T12:53:43;97980.41;;;19.89;31.39
47374;BME280;33123;50.118;10.272;2023-04-10T12:56:11;97957.00;;;19.53;31.28
47374;BME280;33123;50.118;10.272;2023-04-10T12:58:39;97977.88;;;19.37;31.40
47374;BME280;33123;50.118;10.272;2023-04-10T13:01:07;97975.69;;;19.25;32.18
47374;BME280;33123;50.118;10.272;2023-04-10T13:03:35;97975.63;;;18.84;32.47
47374;BME280;33123;50.118;10.272;2023-04-10T13:06:02;97975.84;;;19.02;31.97
47374;BME280;33123;50.118;10.272;2023-04-10T13:08:28;97964.38;;;18.68;33.69
47374;BME280;33123;50.118;10.272;2023-04-10T13:10:56;97970.06;;;18.81;33.39
47374;BME280;33123;50.118;10.272;2023-04-10T13:13:27;97971.63;;;18.68;32.75
47374;BME280;33123;50.118;10.272;2023-04-10T13:15:56;97958.66;;;18.75;32.21